Agra, Kansas
Current Conditions -  °F | °C
As of 7:53 AM on Wednesday 26 Nov 2014 (Local Time) from KHLC Reporting Station
Few Clouds Few Clouds  
Wind Chill: 28°   Ceiling: Unl
Heat Index: 37°   Visibility: 10mi
Dew Point: 24°   Wind: 16mph
Humidity: 59%   Direction: 310°NW
Pressure: 30.14"   Gusts: 24mph
Location:  39.76°N, 99.12°W
Report Text: KHLC 261353Z AUTO 31014G21KT 10SM FEW036 03/M04 A3014 RMK AO2 PRESRR SLP218 T00281044
Loading
Personal Weather Stations






























Interactive Weather Map New forecast layout! Learn more

10-Day Weather Forecast

Advertisements
Track Severe Weather on mobile